Time;durP1;ratioP1;P1;durP2;ratioP2;P2;SDS_P1;SDS_P2;PMS_P1;PMS_P2;Temp;Humidity;BMP_temperature;BMP_pressure;BME280_temperature;BME280_humidity;BME280_pressure;Samples;Min_cycle;Max_cycle;Signal;HPM_P1;HPM_P2
2023/09/22 00:01:38;;;;;;;0.50;0.32;;;14.90;99.90;;;;;;4955395;28;20486;-64
2023/09/22 00:04:04;;;;;;;0.00;0.00;;;14.90;99.90;;;;;;4971022;28;20046;-65
2023/09/22 00:06:30;;;;;;;0.00;0.00;;;14.90;99.90;;;;;;4972236;28;20130;-64
2023/09/22 00:08:56;;;;;;;0.20;0.20;;;14.90;99.90;;;;;;4971818;28;20050;-65
2023/09/22 00:11:22;;;;;;;0.10;0.10;;;14.90;99.90;;;;;;4971940;28;20061;-65
2023/09/22 00:13:47;;;;;;;0.00;0.00;;;14.80;99.90;;;;;;4970249;28;20439;-65
2023/09/22 00:16:14;;;;;;;0.55;0.52;;;14.80;99.90;;;;;;4972434;28;20102;-65
2023/09/22 00:18:39;;;;;;;0.10;0.10;;;14.80;99.90;;;;;;4972594;28;20414;-64
2023/09/22 00:21:05;;;;;;;0.10;0.10;;;14.80;99.90;;;;;;4970638;28;20035;-65
2023/09/22 00:23:30;;;;;;;0.10;0.10;;;14.80;99.90;;;;;;4971981;28;20082;-64
2023/09/22 00:25:56;;;;;;;0.10;0.10;;;14.80;99.90;;;;;;4972711;28;20042;-65
2023/09/22 00:28:21;;;;;;;0.55;0.38;;;14.80;99.90;;;;;;4971779;28;20083;-65
2023/09/22 00:30:47;;;;;;;0.00;0.00;;;14.80;99.90;;;;;;4953798;28;20051;-65
2023/09/22 00:33:13;;;;;;;0.00;0.00;;;14.80;99.90;;;;;;4972190;28;20039;-65
2023/09/22 00:35:38;;;;;;;0.10;0.10;;;14.80;99.90;;;;;;4963570;28;20121;-65
2023/09/22 00:38:06;;;;;;;0.10;0.10;;;14.80;99.90;;;;;;4972548;28;20046;-65
2023/09/22 00:40:32;;;;;;;0.43;0.40;;;14.80;99.90;;;;;;4970065;28;20057;-65
2023/09/22 00:43:09;;;;;;;0.35;0.35;;;14.80;99.90;;;;;;4972209;28;20047;-65
2023/09/22 00:45:41;;;;;;;0.00;0.00;;;14.80;99.90;;;;;;4979384;28;20039;-65
2023/09/22 00:48:08;;;;;;;0.00;0.00;;;14.80;99.90;;;;;;4971535;28;20090;-64
2023/09/22 00:50:34;;;;;;;0.38;0.38;;;14.90;99.90;;;;;;4976034;28;20054;-65
2023/09/22 00:53:00;;;;;;;0.45;0.45;;;14.90;99.90;;;;;;4958512;28;20402;-65
2023/09/22 00:55:26;;;;;;;0.08;0.08;;;14.90;99.90;;;;;;4956424;28;20055;-64
2023/09/22 00:57:52;;;;;;;0.20;0.20;;;14.90;99.90;;;;;;4975448;28;20053;-65
2023/09/22 01:00:19;;;;;;;0.10;0.10;;;14.90;99.90;;;;;;4974416;28;20642;-65
2023/09/22 01:02:45;;;;;;;0.30;0.30;;;14.90;99.90;;;;;;4975068;28;20082;-65
2023/09/22 01:05:10;;;;;;;0.00;0.00;;;14.90;99.90;;;;;;4976032;28;20521;-65
2023/09/22 01:07:37;;;;;;;1.88;1.23;;;14.90;99.90;;;;;;4974310;28;20054;-65
2023/09/22 01:10:09;;;;;;;0.08;0.08;;;14.90;99.90;;;;;;4974797;28;20526;-65
2023/09/22 01:12:35;;;;;;;0.00;0.00;;;14.90;99.90;;;;;;4974264;28;20050;-65
2023/09/22 01:15:01;;;;;;;0.20;0.20;;;14.90;99.90;;;;;;4975734;28;20042;-65
2023/09/22 01:17:27;;;;;;;0.00;0.00;;;14.90;99.90;;;;;;4957637;28;20051;-65
2023/09/22 01:19:52;;;;;;;0.00;0.00;;;15.00;99.90;;;;;;4958437;28;20458;-65
2023/09/22 01:22:19;;;;;;;0.65;0.35;;;14.90;99.90;;;;;;4973496;28;20117;-65
2023/09/22 01:24:44;;;;;;;0.00;0.00;;;14.90;99.90;;;;;;4974643;28;20047;-65
2023/09/22 01:27:10;;;;;;;0.17;0.17;;;14.90;99.90;;;;;;4958233;28;20390;-65
2023/09/22 01:29:35;;;;;;;0.00;0.00;;;14.90;99.90;;;;;;4973369;28;20051;-65
2023/09/22 01:32:02;;;;;;;0.17;0.17;;;14.90;99.90;;;;;;4975092;28;20498;-64
2023/09/22 01:34:28;;;;;;;0.77;0.77;;;15.00;99.90;;;;;;4957768;28;20525;-65
2023/09/22 01:36:53;;;;;;;0.00;0.00;;;14.90;99.90;;;;;;4974570;28;20047;-65
2023/09/22 01:39:19;;;;;;;0.25;0.25;;;14.90;99.90;;;;;;4973459;28;20089;-65
2023/09/22 01:41:44;;;;;;;0.38;0.38;;;14.90;99.90;;;;;;4974783;28;20053;-65
2023/09/22 01:44:13;;;;;;;0.00;0.00;;;14.90;99.90;;;;;;4974704;28;20035;-64
2023/09/22 01:46:39;;;;;;;0.20;0.20;;;14.90;99.90;;;;;;4970953;28;20055;-65
2023/09/22 01:49:04;;;;;;;0.10;0.10;;;14.80;99.90;;;;;;4974216;28;20049;-65
2023/09/22 01:51:30;;;;;;;0.00;0.00;;;14.80;99.90;;;;;;4972587;28;20129;-65
2023/09/22 01:53:56;;;;;;;0.00;0.00;;;14.80;99.90;;;;;;4974267;28;20122;-65
2023/09/22 01:56:22;;;;;;;0.00;0.00;;;14.80;99.90;;;;;;4975245;28;20046;-65
2023/09/22 01:58:48;;;;;;;0.68;0.68;;;14.80;99.90;;;;;;4973404;28;20439;-65
2023/09/22 02:01:14;;;;;;;0.60;0.60;;;14.70;99.90;;;;;;4973089;28;20130;-65
2023/09/22 02:03:40;;;;;;;0.10;0.10;;;14.70;99.90;;;;;;4957422;28;20126;-65
2023/09/22 02:06:05;;;;;;;0.13;0.13;;;14.60;99.90;;;;;;4971683;28;20399;-65
2023/09/22 02:08:31;;;;;;;0.35;0.30;;;14.60;99.90;;;;;;4957432;28;20083;-65
2023/09/22 02:10:57;;;;;;;0.52;0.52;;;14.60;99.90;;;;;;4972611;28;20113;-65
2023/09/22 02:13:22;;;;;;;0.13;0.13;;;14.60;99.90;;;;;;4956499;28;20046;-65
2023/09/22 02:15:48;;;;;;;0.30;0.30;;;14.50;99.90;;;;;;4972829;28;20428;-65
2023/09/22 02:18:14;;;;;;;0.22;0.22;;;14.50;99.90;;;;;;4956945;28;20062;-65
2023/09/22 02:20:42;;;;;;;0.10;0.10;;;14.50;99.90;;;;;;4973641;28;20474;-64
2023/09/22 02:23:07;;;;;;;0.00;0.00;;;14.40;99.90;;;;;;4972987;28;20039;-65
2023/09/22 02:25:34;;;;;;;0.03;0.03;;;14.40;99.90;;;;;;4974264;28;20489;-65
2023/09/22 02:28:00;;;;;;;2.90;0.47;;;14.40;99.90;;;;;;4956469;28;20186;-65
2023/09/22 02:30:26;;;;;;;0.00;0.00;;;14.30;99.90;;;;;;4954914;28;20133;-65
2023/09/22 02:32:52;;;;;;;0.20;0.20;;;14.30;99.90;;;;;;4973813;28;20042;-65
2023/09/22 02:35:21;;;;;;;0.08;0.08;;;14.30;99.90;;;;;;4955034;28;20213;-65
2023/09/22 02:37:47;;;;;;;0.10;0.10;;;14.20;99.90;;;;;;4974128;28;20055;-65
2023/09/22 02:40:14;;;;;;;0.30;0.30;;;14.20;99.90;;;;;;4956211;28;20083;-65
2023/09/22 02:42:40;;;;;;;0.00;0.00;;;14.20;99.90;;;;;;4972074;28;20498;-65
2023/09/22 02:45:06;;;;;;;0.20;0.20;;;14.20;99.90;;;;;;4973811;28;20047;-65
2023/09/22 02:47:32;;;;;;;0.00;0.00;;;14.10;99.90;;;;;;4973159;28;20058;-65
2023/09/22 02:49:58;;;;;;;0.20;0.20;;;14.00;99.90;;;;;;4972284;28;20490;-65
2023/09/22 02:52:23;;;;;;;0.00;0.00;;;14.00;99.90;;;;;;4973821;28;20050;-65
2023/09/22 02:54:59;;;;;;;0.10;0.10;;;14.00;99.90;;;;;;4973239;28;20117;-65
2023/09/22 02:57:25;;;;;;;0.35;0.32;;;14.00;99.90;;;;;;4974086;28;20043;-65
2023/09/22 02:59:53;;;;;;;0.10;0.10;;;13.90;99.90;;;;;;4972131;28;20049;-64
2023/09/22 03:02:19;;;;;;;0.13;0.13;;;13.90;99.90;;;;;;4973108;28;20074;-65
2023/09/22 03:04:46;;;;;;;0.10;0.10;;;13.90;99.90;;;;;;4973810;28;20054;-65
2023/09/22 03:07:12;;;;;;;0.20;0.20;;;13.80;99.90;;;;;;4973797;28;20078;-65
2023/09/22 03:09:38;;;;;;;0.00;0.00;;;13.80;99.90;;;;;;4970889;28;20070;-65
2023/09/22 03:12:04;;;;;;;3.10;0.57;;;13.80;99.90;;;;;;4973464;28;20051;-65
2023/09/22 03:14:30;;;;;;;0.00;0.00;;;13.70;99.90;;;;;;4954508;28;20059;-65
2023/09/22 03:16:57;;;;;;;0.00;0.00;;;13.70;99.90;;;;;;4972294;28;20051;-65
2023/09/22 03:19:23;;;;;;;0.00;0.00;;;13.70;99.90;;;;;;4973721;28;20034;-65
2023/09/22 03:21:49;;;;;;;0.20;0.20;;;13.70;99.90;;;;;;4973382;28;20046;-65
2023/09/22 03:24:14;;;;;;;0.03;0.03;;;13.70;99.90;;;;;;4970829;28;20075;-65
2023/09/22 03:26:40;;;;;;;0.28;0.28;;;13.70;99.90;;;;;;4973453;28;20043;-65
2023/09/22 03:29:05;;;;;;;0.05;0.05;;;13.70;99.90;;;;;;4973124;28;20038;-65
2023/09/22 03:31:31;;;;;;;0.00;0.00;;;13.60;99.90;;;;;;4970952;28;20402;-65
2023/09/22 03:33:56;;;;;;;0.13;0.13;;;13.60;99.90;;;;;;4973133;28;20042;-65
2023/09/22 03:36:22;;;;;;;0.00;0.00;;;13.50;99.90;;;;;;4972186;28;20050;-65
2023/09/22 03:38:48;;;;;;;0.00;0.00;;;13.50;99.90;;;;;;4973211;28;20410;-65
2023/09/22 03:41:16;;;;;;;0.20;0.20;;;13.50;99.90;;;;;;4970970;28;20074;-65
2023/09/22 03:43:43;;;;;;;0.00;0.00;;;13.40;99.90;;;;;;4972152;28;20093;-65
2023/09/22 03:46:10;;;;;;;0.00;0.00;;;13.40;99.90;;;;;;4972797;28;20038;-65
2023/09/22 03:48:36;;;;;;;0.00;0.00;;;13.40;99.90;;;;;;4970965;28;20043;-65
2023/09/22 03:51:02;;;;;;;0.00;0.00;;;13.40;99.90;;;;;;4972408;28;20050;-65
2023/09/22 03:53:27;;;;;;;0.05;0.05;;;13.40;99.90;;;;;;4973128;28;20076;-65
2023/09/22 03:55:53;;;;;;;0.00;0.00;;;13.50;99.90;;;;;;4971031;28;20050;-65
2023/09/22 03:58:20;;;;;;;0.00;0.00;;;13.50;99.90;;;;;;4972303;28;20462;-65
2023/09/22 04:00:46;;;;;;;0.10;0.10;;;13.50;99.90;;;;;;4970599;28;20050;-65
2023/09/22 04:03:13;;;;;;;0.20;0.20;;;13.50;99.90;;;;;;4973034;28;20039;-65
2023/09/22 04:05:42;;;;;;;0.00;0.00;;;13.60;99.90;;;;;;4972091;28;20133;-65
2023/09/22 04:08:08;;;;;;;1.45;0.52;;;13.60;99.90;;;;;;4970747;28;20043;-65
2023/09/22 04:10:33;;;;;;;0.00;0.00;;;13.70;99.90;;;;;;4972797;28;20593;-65
2023/09/22 04:12:59;;;;;;;0.00;0.00;;;13.70;99.90;;;;;;4971982;28;20518;-65
2023/09/22 04:15:25;;;;;;;0.00;0.00;;;13.80;99.90;;;;;;4970837;28;20042;-65
2023/09/22 04:17:51;;;;;;;0.00;0.00;;;13.80;99.90;;;;;;4971258;28;20043;-65
2023/09/22 04:20:29;;;;;;;0.10;0.10;;;13.80;99.90;;;;;;4971553;28;20066;-65
2023/09/22 04:22:58;;;;;;;0.00;0.00;;;13.80;99.90;;;;;;4972628;28;20069;-65
2023/09/22 04:25:31;;;;;;;0.00;0.00;;;13.80;99.90;;;;;;4975702;28;20438;-65
2023/09/22 04:28:07;;;;;;;;;;;13.80;99.90;;;;;;4977053;28;20047;-65
2023/09/22 04:30:36;;;;;;;0.20;0.20;;;13.80;99.90;;;;;;4968529;28;19926;-65
2023/09/22 04:33:04;;;;;;;0.00;0.00;;;13.90;99.90;;;;;;4973919;28;20043;-65
2023/09/22 04:35:32;;;;;;;0.10;0.10;;;13.90;99.90;;;;;;4976336;28;20055;-65
2023/09/22 04:37:59;;;;;;;0.10;0.10;;;13.90;99.90;;;;;;4958940;28;20102;-65
2023/09/22 04:40:24;;;;;;;0.03;0.03;;;13.90;99.90;;;;;;4975738;28;20377;-65
2023/09/22 04:42:53;;;;;;;0.22;0.22;;;13.90;99.90;;;;;;4974397;28;20039;-65
2023/09/22 04:45:19;;;;;;;0.45;0.45;;;14.00;99.90;;;;;;4958913;28;20101;-65
2023/09/22 04:47:51;;;;;;;0.70;0.52;;;13.90;99.90;;;;;;4975089;28;20054;-65
2023/09/22 04:50:16;;;;;;;0.00;0.00;;;13.90;99.90;;;;;;4975061;28;20485;-65
2023/09/22 04:52:42;;;;;;;0.05;0.05;;;13.90;99.90;;;;;;4975595;28;20055;-65
2023/09/22 04:55:08;;;;;;;0.08;0.08;;;14.00;99.90;;;;;;4956405;28;20046;-65
2023/09/22 04:57:34;;;;;;;1.73;0.40;;;14.00;99.90;;;;;;4975615;28;20045;-65
2023/09/22 04:59:59;;;;;;;0.28;0.28;;;14.00;99.90;;;;;;4975873;28;20046;-65
2023/09/22 05:02:25;;;;;;;0.00;0.00;;;13.90;99.90;;;;;;4975476;28;20050;-65
2023/09/22 05:04:51;;;;;;;3.40;1.48;;;14.00;99.90;;;;;;4974355;28;20049;-65
2023/09/22 05:07:16;;;;;;;0.20;0.20;;;14.00;99.90;;;;;;4975918;28;20043;-65
2023/09/22 05:09:43;;;;;;;0.10;0.10;;;14.00;99.90;;;;;;4974957;28;20413;-65
2023/09/22 05:12:09;;;;;;;0.20;0.20;;;14.00;99.90;;;;;;4974112;28;20120;-64
2023/09/22 05:14:35;;;;;;;0.55;0.55;;;14.00;99.90;;;;;;4975476;28;20049;-65
2023/09/22 05:17:00;;;;;;;0.20;0.20;;;14.00;99.90;;;;;;4957940;28;20039;-65
2023/09/22 05:19:26;;;;;;;0.10;0.10;;;14.00;99.90;;;;;;4975760;28;20147;-65
2023/09/22 05:21:52;;;;;;;0.00;0.00;;;14.00;99.90;;;;;;4955766;28;20063;-65
2023/09/22 05:24:17;;;;;;;0.95;0.55;;;14.00;99.90;;;;;;4975208;28;20042;-65
2023/09/22 05:26:43;;;;;;;0.10;0.10;;;14.00;99.90;;;;;;4973616;28;20039;-65
2023/09/22 05:29:08;;;;;;;0.47;0.43;;;14.00;99.90;;;;;;4974634;28;20046;-65
2023/09/22 05:31:36;;;;;;;0.30;0.30;;;14.10;99.90;;;;;;4949860;28;20057;-65
2023/09/22 05:34:03;;;;;;;0.32;0.32;;;14.10;99.90;;;;;;4972244;28;20079;-65
2023/09/22 05:36:29;;;;;;;0.00;0.00;;;14.10;99.90;;;;;;4974261;28;20058;-65
2023/09/22 05:38:56;;;;;;;0.60;0.60;;;14.10;99.90;;;;;;4973873;28;20086;-65
2023/09/22 05:41:22;;;;;;;0.10;0.10;;;14.10;99.90;;;;;;4975494;28;20074;-65
2023/09/22 05:43:47;;;;;;;0.50;0.50;;;14.10;99.90;;;;;;4975029;28;20565;-65
2023/09/22 05:46:13;;;;;;;0.10;0.10;;;14.10;99.90;;;;;;4973836;28;20075;-65
2023/09/22 05:48:38;;;;;;;0.75;0.68;;;14.10;99.90;;;;;;4975249;28;20069;-65
2023/09/22 05:51:05;;;;;;;0.17;0.17;;;14.10;99.90;;;;;;4957543;28;20038;-65
2023/09/22 05:53:30;;;;;;;0.00;0.00;;;14.00;99.90;;;;;;4973669;28;20050;-64
2023/09/22 05:56:03;;;;;;;0.05;0.03;;;14.00;99.90;;;;;;4957738;28;20109;-64
2023/09/22 05:58:29;;;;;;;0.13;0.13;;;14.00;99.90;;;;;;4974522;28;20043;-65
2023/09/22 06:00:56;;;;;;;0.10;0.10;;;14.00;99.90;;;;;;4969703;28;20090;-65
2023/09/22 06:03:22;;;;;;;0.38;0.38;;;13.90;99.90;;;;;;4973282;28;20101;-65
2023/09/22 06:05:49;;;;;;;0.28;0.28;;;13.90;99.90;;;;;;4973859;28;20058;-65
2023/09/22 06:08:15;;;;;;;1.05;1.02;;;13.90;99.90;;;;;;4973181;28;20050;-65
2023/09/22 06:10:43;;;;;;;0.90;0.68;;;13.90;99.90;;;;;;4974844;28;20054;-65
2023/09/22 06:13:09;;;;;;;0.30;0.30;;;13.90;99.90;;;;;;4974366;28;20035;-65
2023/09/22 06:15:35;;;;;;;0.50;0.50;;;13.90;99.90;;;;;;4973202;28;20108;-65
2023/09/22 06:18:00;;;;;;;0.20;0.20;;;13.90;99.90;;;;;;4973846;28;20042;-65
2023/09/22 06:20:26;;;;;;;0.20;0.20;;;13.80;99.90;;;;;;4971367;28;20122;-64
2023/09/22 06:22:52;;;;;;;0.38;0.38;;;13.90;99.90;;;;;;4971799;28;20042;-65
2023/09/22 06:25:18;;;;;;;0.17;0.15;;;13.90;99.90;;;;;;4973694;28;20074;-65
2023/09/22 06:27:44;;;;;;;11.18;0.47;;;13.90;99.90;;;;;;4972489;28;20046;-65
2023/09/22 06:30:13;;;;;;;0.10;0.10;;;13.90;99.90;;;;;;4974404;28;20398;-65
2023/09/22 06:32:42;;;;;;;1.20;0.70;;;14.00;99.90;;;;;;4973403;28;20050;-65
2023/09/22 06:35:10;;;;;;;0.45;0.45;;;13.90;99.90;;;;;;4974347;28;20042;-65
2023/09/22 06:37:40;;;;;;;0.20;0.20;;;13.90;99.90;;;;;;4971929;28;20051;-64
2023/09/22 06:40:11;;;;;;;0.43;0.43;;;13.90;99.90;;;;;;4973495;28;20125;-65
2023/09/22 06:42:45;;;;;;;0.20;0.20;;;13.90;99.90;;;;;;4973944;28;20375;-65
2023/09/22 06:45:11;;;;;;;0.65;0.65;;;14.00;99.90;;;;;;4954783;28;20058;-65
2023/09/22 06:47:43;;;;;;;0.25;0.25;;;14.00;99.90;;;;;;4972909;28;20061;-64
2023/09/22 06:50:11;;;;;;;0.47;0.47;;;14.00;99.90;;;;;;4974201;28;20042;-65
2023/09/22 06:52:37;;;;;;;0.38;0.38;;;14.00;99.90;;;;;;4975223;28;20059;-64
2023/09/22 06:55:07;;;;;;;0.05;0.05;;;14.00;99.90;;;;;;4972837;28;20047;-65
2023/09/22 06:57:33;;;;;;;0.45;0.45;;;14.00;99.90;;;;;;4973977;28;20047;-65
2023/09/22 06:59:59;;;;;;;0.00;0.00;;;14.00;99.90;;;;;;4971960;28;20078;-65
2023/09/22 07:02:25;;;;;;;0.38;0.35;;;14.10;99.90;;;;;;4972765;28;20454;-65
2023/09/22 07:04:50;;;;;;;1.20;1.13;;;14.10;99.90;;;;;;4973858;28;20053;-64
2023/09/22 07:07:18;;;;;;;0.32;0.32;;;14.10;99.90;;;;;;4972893;28;20078;-65
2023/09/22 07:09:44;;;;;;;0.90;0.88;;;14.10;99.90;;;;;;4971672;28;20046;-65
2023/09/22 07:12:09;;;;;;;0.10;0.10;;;14.10;99.90;;;;;;4973448;28;20051;-65
2023/09/22 07:14:36;;;;;;;1.08;0.38;;;14.10;99.90;;;;;;4973011;28;20470;-65
2023/09/22 07:17:02;;;;;;;6.03;1.38;;;14.10;99.90;;;;;;4973466;28;20047;-65
2023/09/22 07:19:28;;;;;;;0.10;0.10;;;14.20;99.90;;;;;;4971531;28;20043;-65
2023/09/22 07:21:54;;;;;;;0.38;0.38;;;14.20;99.90;;;;;;4972520;28;20549;-65
2023/09/22 07:24:19;;;;;;;0.20;0.20;;;14.20;99.90;;;;;;4973158;28;20051;-65
2023/09/22 07:26:45;;;;;;;1.33;1.23;;;14.20;99.90;;;;;;4971219;28;20050;-65
2023/09/22 07:29:11;;;;;;;0.65;0.65;;;14.30;99.90;;;;;;4972293;28;20525;-65
2023/09/22 07:31:38;;;;;;;1.88;1.20;;;14.30;99.90;;;;;;4972219;28;20089;-64
2023/09/22 07:34:03;;;;;;;0.57;0.57;;;14.30;99.90;;;;;;4973407;28;20115;-65
2023/09/22 07:36:29;;;;;;;2.05;1.95;;;14.30;99.90;;;;;;4970862;28;20058;-64
2023/09/22 07:38:54;;;;;;;5.05;0.95;;;14.40;99.90;;;;;;4973268;28;20035;-64
2023/09/22 07:41:20;;;;;;;0.80;0.80;;;14.50;99.90;;;;;;4972975;28;20061;-65
2023/09/22 07:43:46;;;;;;;0.52;0.52;;;14.50;99.90;;;;;;4964180;28;20045;-65
2023/09/22 07:46:11;;;;;;;1.27;1.17;;;14.60;99.90;;;;;;4971097;28;20042;-65
2023/09/22 07:48:37;;;;;;;2.05;0.55;;;14.70;99.90;;;;;;4973167;28;20494;-64
2023/09/22 07:51:04;;;;;;;0.70;0.70;;;14.80;99.90;;;;;;4970719;28;20442;-65
2023/09/22 07:53:30;;;;;;;0.55;0.55;;;14.80;99.90;;;;;;4972617;28;20054;-65
2023/09/22 07:55:59;;;;;;;0.73;0.73;;;14.90;99.90;;;;;;4972701;28;20475;-64
2023/09/22 07:58:26;;;;;;;0.52;0.52;;;14.90;99.90;;;;;;4969520;28;20039;-65
2023/09/22 08:00:52;;;;;;;0.40;0.40;;;14.90;99.90;;;;;;4972974;28;20042;-64
2023/09/22 08:03:18;;;;;;;0.22;0.22;;;15.00;99.90;;;;;;4979669;28;20082;-65
2023/09/22 08:05:45;;;;;;;0.50;0.50;;;14.90;99.90;;;;;;4970526;28;20069;-65
2023/09/22 08:08:12;;;;;;;0.52;0.52;;;15.00;99.90;;;;;;4972278;28;20070;-65
2023/09/22 08:10:41;;;;;;;0.13;0.13;;;15.00;99.90;;;;;;4970122;28;20093;-64
2023/09/22 08:13:09;;;;;;;0.20;0.20;;;15.00;99.90;;;;;;4955476;28;20055;-65
2023/09/22 08:15:39;;;;;;;0.30;0.30;;;15.00;99.90;;;;;;4971174;28;20073;-65
2023/09/22 08:18:05;;;;;;;0.82;0.60;;;14.90;99.90;;;;;;4972243;28;20043;-65
2023/09/22 08:20:34;;;;;;;0.00;0.00;;;15.00;99.90;;;;;;4971294;28;20051;-65
2023/09/22 08:23:00;;;;;;;0.85;0.85;;;15.00;99.90;;;;;;4972524;28;20034;-65
2023/09/22 08:25:26;;;;;;;0.00;0.00;;;14.90;99.90;;;;;;4971832;28;20085;-65
2023/09/22 08:27:52;;;;;;;2.55;1.08;;;15.00;99.90;;;;;;4972528;28;20073;-65
2023/09/22 08:30:19;;;;;;;0.00;0.00;;;15.10;99.90;;;;;;4971000;28;20054;-65
2023/09/22 08:32:45;;;;;;;0.20;0.20;;;15.10;99.90;;;;;;4970490;28;20414;-65
2023/09/22 08:35:13;;;;;;;0.03;0.03;;;15.40;99.90;;;;;;4972196;28;20074;-65
2023/09/22 08:37:42;;;;;;;0.15;0.15;;;16.10;99.90;;;;;;4972616;28;20089;-65
2023/09/22 08:40:15;;;;;;;0.10;0.10;;;16.70;99.90;;;;;;4971915;28;20065;-65
2023/09/22 08:42:43;;;;;;;0.32;0.32;;;17.40;99.90;;;;;;4970707;28;20442;-65
2023/09/22 08:45:10;;;;;;;0.00;0.00;;;17.90;99.90;;;;;;4972516;28;20054;-65
2023/09/22 08:47:40;;;;;;;0.28;0.28;;;18.20;99.90;;;;;;4954239;28;20047;-65
2023/09/22 08:50:13;;;;;;;0.47;0.47;;;18.30;99.90;;;;;;4970725;28;20807;-65
2023/09/22 08:52:43;;;;;;;0.70;0.70;;;18.70;99.90;;;;;;4971552;28;20043;-66
2023/09/22 08:55:12;;;;;;;0.60;0.57;;;18.80;99.90;;;;;;4972344;28;20043;-66
2023/09/22 08:57:40;;;;;;;0.00;0.00;;;19.30;99.90;;;;;;4972257;28;20039;-66
2023/09/22 09:00:12;;;;;;;0.10;0.10;;;19.00;99.90;;;;;;4969942;28;20042;-65
2023/09/22 09:02:38;;;;;;;0.00;0.00;;;18.40;99.90;;;;;;4972528;28;20130;-66
2023/09/22 09:05:20;;;;;;;0.10;0.10;;;18.00;99.90;;;;;;4970423;28;20058;-65
2023/09/22 09:07:47;;;;;;;0.22;0.10;;;17.60;99.90;;;;;;4968462;28;20046;-66
2023/09/22 09:10:34;;;;;;;0.00;0.00;;;17.20;99.90;;;;;;4967992;28;20150;-65
2023/09/22 09:13:02;;;;;;;0.00;0.00;;;16.80;99.90;;;;;;4973855;28;20093;-65
2023/09/22 09:15:29;;;;;;;0.00;0.00;;;16.70;99.90;;;;;;4974514;28;20465;-66
2023/09/22 09:18:09;;;;;;;1.95;1.15;;;16.50;99.90;;;;;;4975821;28;20169;-66
2023/09/22 09:20:40;;;;;;;0.00;0.00;;;16.30;99.90;;;;;;4976264;28;20483;-65
2023/09/22 09:23:22;;;;;;;1.85;1.58;;;16.30;99.90;;;;;;4973145;28;20039;-65
2023/09/22 09:25:56;;;;;;;0.05;0.05;;;16.80;99.90;;;;;;4975416;28;20074;-66
2023/09/22 09:28:23;;;;;;;0.00;0.00;;;17.40;99.90;;;;;;4972606;28;20518;-66
2023/09/22 09:30:54;;;;;;;0.00;0.00;;;17.70;99.90;;;;;;4957593;28;20046;-66
2023/09/22 09:33:25;;;;;;;0.20;0.20;;;18.20;99.90;;;;;;4957949;28;20065;-66
2023/09/22 09:35:52;;;;;;;0.20;0.20;;;18.30;99.90;;;;;;4973020;28;20042;-65
2023/09/22 09:38:20;;;;;;;2.95;1.60;;;18.60;99.90;;;;;;4974940;28;20501;-66
2023/09/22 09:40:45;;;;;;;0.35;0.35;;;18.50;99.90;;;;;;4975504;28;20039;-66
2023/09/22 09:43:13;;;;;;;0.22;0.22;;;18.70;99.90;;;;;;4957089;28;20039;-66
2023/09/22 09:45:47;;;;;;;0.15;0.15;;;19.10;99.90;;;;;;4974220;28;20053;-66
2023/09/22 09:48:16;;;;;;;0.00;0.00;;;19.40;99.90;;;;;;4956041;28;20061;-66
2023/09/22 09:50:47;;;;;;;2.47;0.93;;;19.80;99.90;;;;;;4974115;28;20078;-65
2023/09/22 09:53:28;;;;;;;2.22;1.77;;;20.00;99.90;;;;;;4975071;28;20074;-66
2023/09/22 09:56:02;;;;;;;0.00;0.00;;;19.40;99.90;;;;;;4973181;28;20047;-66
2023/09/22 09:58:34;;;;;;;0.17;0.17;;;19.00;99.90;;;;;;4975201;28;20082;-66
2023/09/22 10:01:04;;;;;;;0.05;0.05;;;18.40;99.90;;;;;;4973000;28;20422;-66
2023/09/22 10:03:31;;;;;;;0.10;0.10;;;17.90;99.90;;;;;;4974191;28;20046;-66
2023/09/22 10:05:58;;;;;;;0.00;0.00;;;17.90;99.90;;;;;;4974693;28;20051;-66
2023/09/22 10:08:26;;;;;;;0.10;0.10;;;18.00;99.90;;;;;;4973073;28;20039;-66
2023/09/22 10:10:58;;;;;;;0.20;0.20;;;18.10;99.90;;;;;;4973788;28;20085;-66
2023/09/22 10:13:24;;;;;;;0.10;0.10;;;18.20;99.90;;;;;;4974930;28;20447;-66
2023/09/22 10:15:54;;;;;;;0.30;0.30;;;18.10;99.90;;;;;;4972401;28;20129;-65
2023/09/22 10:18:21;;;;;;;2.38;1.25;;;18.00;99.90;;;;;;4956310;28;20097;-65
2023/09/22 10:20:48;;;;;;;0.05;0.05;;;17.70;99.90;;;;;;4974078;28;20030;-65
2023/09/22 10:23:19;;;;;;;0.00;0.00;;;17.30;99.90;;;;;;4972997;28;21003;-65
2023/09/22 10:26:14;;;;;;;0.10;0.10;;;17.10;99.90;;;;;;4973312;28;20402;-65
2023/09/22 10:28:40;;;;;;;0.00;0.00;;;16.80;99.90;;;;;;4958547;28;20129;-65
2023/09/22 10:31:06;;;;;;;0.08;0.08;;;16.60;99.90;;;;;;4972015;28;20142;-65
2023/09/22 10:33:32;;;;;;;0.00;0.00;;;16.40;99.90;;;;;;4973918;28;20047;-65
2023/09/22 10:36:00;;;;;;;0.28;0.28;;;16.30;99.90;;;;;;4972361;28;20044;-65
2023/09/22 10:38:26;;;;;;;0.10;0.10;;;16.20;99.90;;;;;;4973568;28;20047;-65
2023/09/22 10:41:01;;;;;;;1.85;1.10;;;16.30;99.90;;;;;;4974026;28;20509;-65
2023/09/22 10:43:27;;;;;;;0.30;0.30;;;16.50;99.90;;;;;;4973941;28;20501;-65
2023/09/22 10:45:53;;;;;;;0.00;0.00;;;16.60;99.90;;;;;;4971557;28;20039;-65
2023/09/22 10:48:20;;;;;;;0.00;0.00;;;16.50;99.90;;;;;;4972154;28;20062;-66
2023/09/22 10:50:49;;;;;;;0.10;0.10;;;16.40;99.90;;;;;;4973784;28;20042;-65
2023/09/22 10:53:16;;;;;;;4.65;1.20;;;16.30;99.90;;;;;;4973523;28;20050;-65
2023/09/22 10:55:44;;;;;;;0.00;0.00;;;16.40;99.90;;;;;;4973716;28;20054;-65
2023/09/22 10:58:12;;;;;;;0.10;0.10;;;16.50;99.90;;;;;;4971946;28;20046;-66
2023/09/22 11:00:41;;;;;;;0.00;0.00;;;16.90;99.90;;;;;;4972917;28;20042;-65
2023/09/22 11:03:12;;;;;;;0.25;0.25;;;17.10;99.90;;;;;;4957659;28;20043;-65
2023/09/22 11:05:38;;;;;;;0.00;0.00;;;17.60;99.90;;;;;;4973438;28;20391;-66
2023/09/22 11:08:14;;;;;;;0.05;0.05;;;17.40;99.90;;;;;;4954188;28;20046;-65
2023/09/22 11:10:46;;;;;;;0.45;0.32;;;17.30;99.90;;;;;;4972698;28;20047;-65
2023/09/22 11:13:14;;;;;;;0.10;0.10;;;17.30;99.90;;;;;;4971905;28;20057;-66
2023/09/22 11:15:53;;;;;;;0.10;0.10;;;17.20;99.90;;;;;;4955521;28;20050;-65
2023/09/22 11:18:23;;;;;;;0.00;0.00;;;17.00;99.90;;;;;;4971721;28;20055;-65
2023/09/22 11:20:54;;;;;;;0.10;0.10;;;17.00;99.90;;;;;;4968093;28;20406;-66
2023/09/22 11:23:20;;;;;;;0.00;0.00;;;16.80;99.90;;;;;;4971701;28;20074;-65
2023/09/22 11:25:57;;;;;;;0.00;0.00;;;17.20;99.90;;;;;;4973414;28;20043;-65
2023/09/22 11:28:23;;;;;;;0.10;0.10;;;17.70;99.90;;;;;;4972561;28;20513;-65
2023/09/22 11:30:50;;;;;;;0.00;0.00;;;18.00;99.90;;;;;;4971195;28;20047;-65
2023/09/22 11:33:16;;;;;;;0.00;0.00;;;18.20;99.90;;;;;;4970741;28;20047;-65
2023/09/22 11:35:42;;;;;;;0.00;0.00;;;18.50;99.90;;;;;;4972264;28;20042;-66
2023/09/22 11:38:27;;;;;;;0.90;0.90;;;18.20;99.90;;;;;;4973320;28;20050;-66
2023/09/22 11:41:11;;;;;;;0.00;0.00;;;18.50;99.90;;;;;;4954396;28;20050;-65
2023/09/22 11:43:41;;;;;;;0.00;0.00;;;18.70;99.90;;;;;;4972394;28;20483;-66
2023/09/22 11:46:14;;;;;;;0.00;0.00;;;19.00;99.90;;;;;;4973067;28;20074;-66
2023/09/22 11:48:59;;;;;;;0.45;0.45;;;18.40;99.90;;;;;;4970639;28;20039;-65
2023/09/22 11:51:45;;;;;;;0.00;0.00;;;18.60;99.90;;;;;;4973047;28;20402;-65
2023/09/22 11:54:12;;;;;;;0.00;0.00;;;18.10;99.90;;;;;;4973279;28;20050;-66
2023/09/22 11:56:37;;;;;;;0.00;0.00;;;17.80;99.90;;;;;;4952978;28;20139;-65
2023/09/22 11:59:11;;;;;;;0.17;0.17;;;17.60;99.90;;;;;;4972554;28;20074;-66
2023/09/22 12:01:38;;;;;;;0.32;0.32;;;17.60;99.90;;;;;;4971071;28;20051;-66
2023/09/22 12:04:04;;;;;;;0.10;0.10;;;17.70;99.90;;;;;;4972035;28;20042;-65
2023/09/22 12:06:31;;;;;;;0.00;0.00;;;18.10;99.90;;;;;;4972917;28;20054;-66
2023/09/22 12:08:58;;;;;;;0.00;0.00;;;18.20;99.90;;;;;;4973070;28;20043;-65
2023/09/22 12:11:25;;;;;;;0.20;0.20;;;18.30;99.90;;;;;;4970343;28;20446;-66
2023/09/22 12:13:50;;;;;;;0.00;0.00;;;18.20;99.90;;;;;;4973002;28;20078;-65
2023/09/22 12:16:16;;;;;;;0.15;0.15;;;18.60;99.90;;;;;;4970756;28;20077;-65
2023/09/22 12:18:41;;;;;;;0.00;0.00;;;18.80;99.90;;;;;;4971984;28;20050;-66
2023/09/22 12:21:07;;;;;;;0.00;0.00;;;18.80;99.90;;;;;;4971086;28;20105;-65
2023/09/22 12:23:35;;;;;;;0.00;0.00;;;19.10;99.90;;;;;;4972375;28;20371;-66
2023/09/22 12:26:01;;;;;;;2.30;1.75;;;19.40;99.90;;;;;;4972200;28;20067;-66
2023/09/22 12:28:28;;;;;;;0.00;0.00;;;18.70;99.90;;;;;;4970862;28;20034;-65
2023/09/22 12:30:54;;;;;;;0.00;0.00;;;18.30;99.90;;;;;;4954727;28;20039;-65
2023/09/22 12:33:20;;;;;;;0.20;0.17;;;18.00;99.90;;;;;;4972538;28;20054;-66
2023/09/22 12:35:50;;;;;;;0.00;0.00;;;17.90;99.90;;;;;;4970778;28;20081;-66
2023/09/22 12:38:16;;;;;;;0.00;0.00;;;17.70;99.90;;;;;;4969975;28;20114;-66
2023/09/22 12:40:42;;;;;;;0.00;0.00;;;17.70;99.90;;;;;;4972387;28;20038;-66
2023/09/22 12:43:09;;;;;;;0.00;0.00;;;17.80;99.90;;;;;;4971252;28;20051;-66
2023/09/22 12:45:35;;;;;;;0.00;0.00;;;18.20;99.90;;;;;;4974964;28;20549;-66
2023/09/22 12:48:01;;;;;;;0.65;0.65;;;18.20;99.90;;;;;;4975778;28;20090;-66
2023/09/22 12:50:27;;;;;;;0.00;0.00;;;18.00;99.90;;;;;;4976339;28;20076;-66